Observation data for Brownfield on 01/18/2019      Previous  Date  Next       Current Mesonet Observations  Soil Data  Daily Summary Page  Observations in Plain Language
KBWS 180600Z 22008KT 06/M01 A3003 RMK A01 T00591009  RH  062%=      5-min Rain = 0
KBWS 180605Z 22008KT 06/M01 A3003 RMK A01 T00561009  RH  063%=      5-min Rain = 0
KBWS 180610Z 22009KT 06/M01 A3003 RMK A01 T00571008  RH  064%=      5-min Rain = 0
KBWS 180615Z 21009KT 06/M01 A3003 RMK A01 T00571007  RH  064%=      5-min Rain = 0
KBWS 180620Z 21009KT 06/M01 A3003 RMK A01 T00581006  RH  064%=      5-min Rain = 0
KBWS 180625Z 21008KT 06/M01 A3003 RMK A01 T00571006  RH  065%=      5-min Rain = 0
KBWS 180630Z 22008KT 06/M01 A3003 RMK A01 T00551006  RH  066%=      5-min Rain = 0
KBWS 180635Z 21009KT 05/M01 A3002 RMK A01 T00531007  RH  066%=      5-min Rain = 0
KBWS 180640Z 21010KT 05/M01 A3002 RMK A01 T00541006  RH  066%=      5-min Rain = 0
KBWS 180645Z 22010KT 06/M01 A3002 RMK A01 T00561005  RH  066%=      5-min Rain = 0
KBWS 180650Z 22009KT 06/M01 A3001 RMK A01 T00551005  RH  066%=      5-min Rain = 0
KBWS 180655Z 22010KT 05/M01 A3001 RMK A01 T00541005  RH  067%=      5-min Rain = 0
KBWS 180700Z 22010KT 05/M01 A3001 RMK A01 T00541005  RH  066%=      5-min Rain = 0
KBWS 180705Z 22008KT 05/M01 A3001 RMK A01 T00541006  RH  066%=      5-min Rain = 0
KBWS 180710Z 22008KT 05/M01 A3001 RMK A01 T00521006  RH  067%=      5-min Rain = 0
KBWS 180715Z 23008KT 05/M01 A30 RMK A01 T00521006  RH  067%=      5-min Rain = 0
KBWS 180720Z 23008KT 05/M01 A30 RMK A01 T00521006  RH  067%=      5-min Rain = 0
KBWS 180725Z 23008KT 06/M01 A30 RMK A01 T00551005  RH  066%=      5-min Rain = 0
KBWS 180730Z 23009KT 06/M01 A30 RMK A01 T00571005  RH  065%=      5-min Rain = 0
KBWS 180735Z 23008KT 05/M01 A2999 RMK A01 T00541007  RH  066%=      5-min Rain = 0
KBWS 180740Z 23008KT 05/M01 A2999 RMK A01 T00501007  RH  067%=      5-min Rain = 0
KBWS 180745Z 23009KT 05/M01 A2999 RMK A01 T00521006  RH  067%=      5-min Rain = 0
KBWS 180750Z 22009KT 05/M01 A2999 RMK A01 T00541006  RH  066%=      5-min Rain = 0
KBWS 180755Z 22009KT 05/M01 A2998 RMK A01 T00541005  RH  066%=      5-min Rain = 0
KBWS 180800Z 22009KT 06/M00 A2998 RMK A01 T00561004  RH  066%=      5-min Rain = 0
KBWS 180805Z 23009KT 06/M00 A2998 RMK A01 T00561004  RH  066%=      5-min Rain = 0
KBWS 180810Z 23009KT 06/M00 A2998 RMK A01 T00581003  RH  066%=      5-min Rain = 0
KBWS 180815Z 23009KT 06/M01 A2998 RMK A01 T00551005  RH  066%=      5-min Rain = 0
KBWS 180820Z 23008KT 05/M01 A2998 RMK A01 T00501006  RH  068%=      5-min Rain = 0
KBWS 180825Z 23009KT 05/M01 A2997 RMK A01 T00491006  RH  068%=      5-min Rain = 0
KBWS 180830Z 23008KT 05/M01 A2997 RMK A01 T00501005  RH  069%=      5-min Rain = 0
KBWS 180835Z 24008KT 05/M01 A2997 RMK A01 T00541005  RH  067%=      5-min Rain = 0
KBWS 180840Z 24007KT 05/M01 A2997 RMK A01 T00481007  RH  068%=      5-min Rain = 0
KBWS 180845Z 23007KT 05/M01 A2997 RMK A01 T00451008  RH  070%=      5-min Rain = 0
KBWS 180850Z 24007KT 04/M01 A2997 RMK A01 T00441008  RH  070%=      5-min Rain = 0
KBWS 180855Z 25008KT 04/M01 A2997 RMK A01 T00391010  RH  071%=      5-min Rain = 0
KBWS 180900Z 24009KT 04/M01 A2997 RMK A01 T00381008  RH  073%=      5-min Rain = 0
KBWS 180905Z 24010KT 04/M01 A2996 RMK A01 T00421006  RH  072%=      5-min Rain = 0
KBWS 180910Z 23009KT 04/M01 A2996 RMK A01 T00431006  RH  071%=      5-min Rain = 0
KBWS 180915Z 23009KT 05/M00 A2996 RMK A01 T00461004  RH  071%=      5-min Rain = 0
KBWS 180920Z 24010KT 05/M00 A2996 RMK A01 T00471004  RH  070%=      5-min Rain = 0
KBWS 180925Z 23010KT 05/M00 A2995 RMK A01 T00461004  RH  071%=      5-min Rain = 0
KBWS 180930Z 23009KT 05/M00 A2995 RMK A01 T00471003  RH  071%=      5-min Rain = 0
KBWS 180935Z 23009KT 04/M00 A2995 RMK A01 T00441004  RH  072%=      5-min Rain = 0
KBWS 180940Z 24010KT 04/M00 A2995 RMK A01 T00441003  RH  073%=      5-min Rain = 0
KBWS 180945Z 23010KT 04/M00 A2995 RMK A01 T00441002  RH  073%=      5-min Rain = 0
KBWS 180950Z 23011KT 04/M00 A2994 RMK A01 T00441001  RH  073%=      5-min Rain = 0
KBWS 180955Z 23011KT 04/00 A2994 RMK A01 T004400-0  RH  074%=      5-min Rain = 0
KBWS 181000Z 23011KT 05/00 A2993 RMK A01 T00470001  RH  073%=      5-min Rain = 0
KBWS 181005Z 23011KT 05/00 A2993 RMK A01 T00490001  RH  072%=      5-min Rain = 0
KBWS 181010Z 23012KT 05/00 A2993 RMK A01 T00500002  RH  072%=      5-min Rain = 0
KBWS 181015Z 24011KT 05/00 A2993 RMK A01 T00520002  RH  071%=      5-min Rain = 0
KBWS 181020Z 24010KT 05/00 A2993 RMK A01 T00490001  RH  072%=      5-min Rain = 0
KBWS 181025Z 24010KT 05/00 A2993 RMK A01 T00470001  RH  073%=      5-min Rain = 0
KBWS 181030Z 23010KT 05/00 A2992 RMK A01 T00470002  RH  073%=      5-min Rain = 0
KBWS 181035Z 23010KT 05/00 A2992 RMK A01 T00460002  RH  074%=      5-min Rain = 0
KBWS 181040Z 23009KT 05/00 A2992 RMK A01 T00450002  RH  074%=      5-min Rain = 0
KBWS 181045Z 24009KT 05/00 A2992 RMK A01 T00470002  RH  073%=      5-min Rain = 0
KBWS 181050Z 23009KT 05/00 A2991 RMK A01 T00470002  RH  074%=      5-min Rain = 0
KBWS 181055Z 23008KT 04/00 A2991 RMK A01 T00430001  RH  075%=      5-min Rain = 0
KBWS 181100Z 23008KT 04/00 A2991 RMK A01 T00400000  RH  076%=      5-min Rain = 0
KBWS 181105Z 23007KT 04/00 A299 RMK A01 T003900-0  RH  076%=      5-min Rain = 0
KBWS 181110Z 22007KT 04/00 A299 RMK A01 T003800-0  RH  077%=      5-min Rain = 0
KBWS 181115Z 21007KT 04/M00 A2989 RMK A01 T00361001  RH  078%=      5-min Rain = 0
KBWS 181120Z 22007KT 03/00 A2989 RMK A01 T003300-0  RH  080%=      5-min Rain = 0
KBWS 181125Z 22007KT 04/00 A2989 RMK A01 T00350001  RH  079%=      5-min Rain = 0
KBWS 181130Z 22008KT 04/00 A2989 RMK A01 T00380001  RH  078%=      5-min Rain = 0
KBWS 181135Z 22009KT 04/00 A2988 RMK A01 T00440003  RH  076%=      5-min Rain = 0
KBWS 181140Z 21008KT 05/00 A2988 RMK A01 T00450003  RH  075%=      5-min Rain = 0
KBWS 181145Z 21008KT 04/00 A2988 RMK A01 T00430003  RH  076%=      5-min Rain = 0
KBWS 181150Z 21008KT 05/00 A2988 RMK A01 T00450003  RH  075%=      5-min Rain = 0
KBWS 181155Z 23007KT 05/00 A2988 RMK A01 T00480004  RH  074%=      5-min Rain = 0
KBWS 181200Z 25007KT 05/00 A2988 RMK A01 T00490003  RH  073%=      5-min Rain = 0
KBWS 181205Z 24007KT 05/00 A2987 RMK A01 T00470002  RH  073%=      5-min Rain = 0
KBWS 181210Z 23008KT 05/00 A2987 RMK A01 T00470002  RH  073%=      5-min Rain = 0
KBWS 181215Z 23007KT 05/00 A2987 RMK A01 T00460003  RH  074%=      5-min Rain = 0
KBWS 181220Z 22008KT 05/00 A2986 RMK A01 T00470003  RH  074%=      5-min Rain = 0
KBWS 181225Z 22009KT 05/00 A2986 RMK A01 T00480004  RH  074%=      5-min Rain = 0
KBWS 181230Z 22008KT 05/01 A2986 RMK A01 T00500005  RH  074%=      5-min Rain = 0
KBWS 181235Z 23008KT 05/01 A2986 RMK A01 T00530006  RH  073%=      5-min Rain = 0
KBWS 181240Z 23010KT 06/01 A2986 RMK A01 T00570007  RH  071%=      5-min Rain = 0
KBWS 181245Z 23010KT 06/01 A2986 RMK A01 T00630007  RH  068%=      5-min Rain = 0
KBWS 181250Z 23009KT 07/01 A2986 RMK A01 T00650008  RH  067%=      5-min Rain = 0
KBWS 181255Z 24010KT 07/01 A2986 RMK A01 T00700008  RH  066%=      5-min Rain = 0
KBWS 181300Z 24009KT 07/01 A2986 RMK A01 T00740009  RH  064%=      5-min Rain = 0
KBWS 181305Z 23008KT 08/01 A2986 RMK A01 T00750009  RH  064%=      5-min Rain = 0
KBWS 181310Z 24008KT 08/01 A2986 RMK A01 T00750009  RH  063%=      5-min Rain = 0
KBWS 181315Z 24008KT 08/01 A2986 RMK A01 T00760009  RH  063%=      5-min Rain = 0
KBWS 181320Z 25007KT 07/01 A2986 RMK A01 T00740009  RH  064%=      5-min Rain = 0
KBWS 181325Z 25005KT 07/01 A2986 RMK A01 T00710009  RH  065%=      5-min Rain = 0
KBWS 181330Z 24005KT 07/01 A2987 RMK A01 T00680009  RH  067%=      5-min Rain = 0
KBWS 181335Z 24005KT 07/01 A2987 RMK A01 T00680008  RH  066%=      5-min Rain = 0
KBWS 181340Z 24005KT 07/01 A2986 RMK A01 T00670008  RH  067%=      5-min Rain = 0
KBWS 181345Z 24006KT 07/01 A2986 RMK A01 T00680008  RH  067%=      5-min Rain = 0
KBWS 181350Z 23006KT 07/01 A2986 RMK A01 T00650008  RH  067%=      5-min Rain = 0
KBWS 181355Z 23006KT 06/01 A2986 RMK A01 T00610007  RH  069%=      5-min Rain = 0
KBWS 181400Z 24005KT 06/01 A2986 RMK A01 T00590006  RH  070%=      5-min Rain = 0
KBWS 181405Z 25005KT 06/01 A2986 RMK A01 T00590006  RH  069%=      5-min Rain = 0
KBWS 181410Z 26005KT 06/01 A2986 RMK A01 T00580005  RH  069%=      5-min Rain = 0
KBWS 181415Z 25006KT 06/01 A2986 RMK A01 T00570006  RH  070%=      5-min Rain = 0
KBWS 181420Z 24007KT 06/01 A2986 RMK A01 T00610007  RH  069%=      5-min Rain = 0
KBWS 181425Z 23007KT 06/01 A2985 RMK A01 T00630007  RH  068%=      5-min Rain = 0
KBWS 181430Z 23007KT 06/01 A2985 RMK A01 T00620007  RH  068%=      5-min Rain = 0
KBWS 181435Z 23008KT 06/01 A2985 RMK A01 T00600006  RH  069%=      5-min Rain = 0
KBWS 181440Z 23007KT 06/01 A2985 RMK A01 T00570006  RH  070%=      5-min Rain = 0
KBWS 181445Z 22008KT 05/01 A2985 RMK A01 T00540005  RH  072%=      5-min Rain = 0
KBWS 181450Z 22007KT 06/01 A2985 RMK A01 T00550007  RH  072%=      5-min Rain = 0
KBWS 181455Z 23006KT 06/01 A2985 RMK A01 T00640010  RH  069%=      5-min Rain = 0
KBWS 181500Z 27006KT 07/01 A2986 RMK A01 T00730011  RH  066%=      5-min Rain = 0
KBWS 181505Z 23008KT 08/01 A2985 RMK A01 T00770012  RH  064%=      5-min Rain = 0
KBWS 181510Z 23009KT 08/01 A2984 RMK A01 T00800013  RH  063%=      5-min Rain = 0
KBWS 181515Z 26007KT 09/02 A2985 RMK A01 T00860015  RH  062%=      5-min Rain = 0
KBWS 181520Z 28006KT 09/02 A2985 RMK A01 T00930016  RH  059%=      5-min Rain = 0
KBWS 181525Z 25005KT 10/02 A2984 RMK A01 T00950017  RH  059%=      5-min Rain = 0
KBWS 181530Z 25005KT 10/02 A2984 RMK A01 T01000021  RH  059%=      5-min Rain = 0
KBWS 181535Z 26006KT 11/02 A2984 RMK A01 T01060020  RH  056%=      5-min Rain = 0
KBWS 181540Z 27006KT 11/02 A2984 RMK A01 T01120021  RH  054%=      5-min Rain = 0
KBWS 181545Z 26008KT 12/02 A2984 RMK A01 T01190022  RH  052%=      5-min Rain = 0
KBWS 181550Z 26011KT 13/02 A2984 RMK A01 T01270022  RH  049%=      5-min Rain = 0
KBWS 181555Z 25011KT 13/02 A2984 RMK A01 T01330021  RH  047%=      5-min Rain = 0
KBWS 181600Z 25010G15KT 14/02 A2984 RMK A01 T01410020  RH  045%=      5-min Rain = 0
KBWS 181605Z 25014G24KT 15/02 A2983 RMK A01 T01510018  RH  041%=      5-min Rain = 0
KBWS 181610Z 26021G31KT 16/01 A2983 RMK A01 T01600013  RH  037%=      5-min Rain = 0
KBWS 181615Z 26022G28KT 16/01 A2983 RMK A01 T01640010  RH  036%=      5-min Rain = 0
KBWS 181620Z 25025G32KT 17/01 A2982 RMK A01 T01680008  RH  034%=      5-min Rain = 0
KBWS 181625Z 26024G32KT 17/01 A2983 RMK A01 T01710007  RH  033%=      5-min Rain = 0
KBWS 181630Z 25028G35KT 17/01 A2982 RMK A01 T01700006  RH  033%=      5-min Rain = 0
KBWS 181635Z 26027G34KT 17/01 A2983 RMK A01 T01710008  RH  034%=      5-min Rain = 0
KBWS 181640Z 26025G33KT 17/01 A2983 RMK A01 T01730011  RH  034%=      5-min Rain = 0
KBWS 181645Z 25025G35KT 17/01 A2983 RMK A01 T01730010  RH  034%=      5-min Rain = 0
KBWS 181650Z 26027G35KT 17/01 A2983 RMK A01 T01730011  RH  034%=      5-min Rain = 0
KBWS 181655Z 25025G34KT 18/01 A2983 RMK A01 T01760013  RH  034%=      5-min Rain = 0
KBWS 181700Z 25027G33KT 18/01 A2983 RMK A01 T01750010  RH  033%=      5-min Rain = 0
KBWS 181705Z 25023G31KT 18/01 A2983 RMK A01 T01780011  RH  033%=      5-min Rain = 0
KBWS 181710Z 25022G32KT 18/01 A2982 RMK A01 T01830014  RH  032%=      5-min Rain = 0
KBWS 181715Z 25024G29KT 18/01 A2982 RMK A01 T01840013  RH  032%=      5-min Rain = 0
KBWS 181720Z 25023G31KT 19/01 A2982 RMK A01 T01850014  RH  032%=      5-min Rain = 0
KBWS 181725Z 25024G31KT 18/01 A2982 RMK A01 T01840011  RH  032%=      5-min Rain = 0
KBWS 181730Z 26022G29KT 19/01 A2982 RMK A01 T01890012  RH  031%=      5-min Rain = 0
KBWS 181735Z 26023G31KT 19/01 A2982 RMK A01 T01890013  RH  031%=      5-min Rain = 0
KBWS 181740Z 26022G30KT 19/01 A2982 RMK A01 T01890012  RH  031%=      5-min Rain = 0
KBWS 181745Z 26023G30KT 19/01 A2981 RMK A01 T01890009  RH  030%=      5-min Rain = 0
KBWS 181750Z 27024G32KT 19/01 A2981 RMK A01 T01910006  RH  029%=      5-min Rain = 0
KBWS 181755Z 26024G31KT 19/01 A2981 RMK A01 T01880007  RH  030%=      5-min Rain = 0
KBWS 181800Z 27021G28KT 19/01 A298 RMK A01 T01930005  RH  029%=      5-min Rain = 0
KBWS 181805Z 28023G31KT 20/01 A298 RMK A01 T02000005  RH  027%=      5-min Rain = 0
KBWS 181810Z 27020G27KT 20/01 A298 RMK A01 T02020007  RH  027%=      5-min Rain = 0
KBWS 181815Z 28024G33KT 19/00 A298 RMK A01 T01910002  RH  028%=      5-min Rain = 0
KBWS 181820Z 27025G33KT 19/00 A2979 RMK A01 T018800-0  RH  028%=      5-min Rain = 0
KBWS 181825Z 28026G32KT 19/M00 A2979 RMK A01 T01881002  RH  028%=      5-min Rain = 0
KBWS 181830Z 28024G32KT 19/M00 A2979 RMK A01 T01861001  RH  028%=      5-min Rain = 0
KBWS 181835Z 28024G33KT 19/00 A2979 RMK A01 T018600-0  RH  029%=      5-min Rain = 0
KBWS 181840Z 28026G33KT 19/00 A2978 RMK A01 T01860001  RH  029%=      5-min Rain = 0
KBWS 181845Z 28026G32KT 19/00 A2978 RMK A01 T01910002  RH  028%=      5-min Rain = 0
KBWS 181850Z 28023G30KT 19/00 A2977 RMK A01 T01920003  RH  028%=      5-min Rain = 0
KBWS 181855Z 27025G32KT 19/00 A2977 RMK A01 T01900003  RH  029%=      5-min Rain = 0
KBWS 181900Z 27025G34KT 19/00 A2977 RMK A01 T01890003  RH  029%=      5-min Rain = 0
KBWS 181905Z 27020G30KT 19/01 A2977 RMK A01 T01890005  RH  029%=      5-min Rain = 0
KBWS 181910Z 27025G31KT 19/00 A2976 RMK A01 T01890000  RH  028%=      5-min Rain = 0
KBWS 181915Z 27024G32KT 19/00 A2976 RMK A01 T01880001  RH  029%=      5-min Rain = 0
KBWS 181920Z 28027G36KT 19/00 A2975 RMK A01 T01870001  RH  029%=      5-min Rain = 0
KBWS 181925Z 27023G35KT 19/00 A2975 RMK A01 T01920001  RH  028%=      5-min Rain = 0
KBWS 181930Z 27023G36KT 20/01 A2974 RMK A01 T01970005  RH  028%=      5-min Rain = 0
KBWS 181935Z 27024G30KT 20/00 A2974 RMK A01 T01950004  RH  028%=      5-min Rain = 0
KBWS 181940Z 27025G32KT 20/00 A2974 RMK A01 T01950003  RH  028%=      5-min Rain = 0
KBWS 181945Z 27025G32KT 19/00 A2973 RMK A01 T01880001  RH  029%=      5-min Rain = 0
KBWS 181950Z 26023G31KT 19/01 A2973 RMK A01 T01890007  RH  030%=      5-min Rain = 0
KBWS 181955Z 26024G31KT 19/01 A2973 RMK A01 T01870007  RH  030%=      5-min Rain = 0
KBWS 182000Z 27025G36KT 19/01 A2973 RMK A01 T01870006  RH  030%=      5-min Rain = 0
KBWS 182005Z 28027G37KT 19/M00 A2973 RMK A01 T01851003  RH  028%=      5-min Rain = 0
KBWS 182010Z 28031G39KT 18/M01 A2973 RMK A01 T01811005  RH  029%=      5-min Rain = 0
KBWS 182015Z 28027G37KT 19/M00 A2972 RMK A01 T01851001  RH  029%=      5-min Rain = 0
KBWS 182020Z 28022G29KT 19/00 A2972 RMK A01 T01890002  RH  029%=      5-min Rain = 0
KBWS 182025Z 29029G37KT 19/00 A2972 RMK A01 T01910002  RH  028%=      5-min Rain = 0
KBWS 182030Z 29026G39KT 19/01 A2972 RMK A01 T01910005  RH  029%=      5-min Rain = 0
KBWS 182035Z 29029G36KT 18/01 A2972 RMK A01 T01790007  RH  032%=      5-min Rain = 0
KBWS 182040Z 28023G31KT 17/01 A2972 RMK A01 T01740010  RH  033%=      5-min Rain = 0
KBWS 182045Z 28025G35KT 17/01 A2972 RMK A01 T01740006  RH  033%=      5-min Rain = 0
KBWS 182050Z 28023G34KT 17/00 A2972 RMK A01 T01720002  RH  032%=      5-min Rain = 0
KBWS 182055Z 28023G33KT 17/00 A2972 RMK A01 T01730001  RH  032%=      5-min Rain = 0
KBWS 182100Z 28025G31KT 17/00 A2972 RMK A01 T01730004  RH  032%=      5-min Rain = 0
KBWS 182105Z 29026G35KT 17/01 A2972 RMK A01 T01720006  RH  033%=      5-min Rain = 0
KBWS 182110Z 29026G32KT 17/01 A2972 RMK A01 T01730008  RH  033%=      5-min Rain = 0
KBWS 182115Z 29025G33KT 17/01 A2972 RMK A01 T01730005  RH  033%=      5-min Rain = 0
KBWS 182120Z 29023G29KT 17/00 A2972 RMK A01 T01720002  RH  032%=      5-min Rain = 0
KBWS 182125Z 30023G32KT 17/01 A2973 RMK A01 T01700006  RH  033%=      5-min Rain = 0
KBWS 182130Z 29024G31KT 17/00 A2973 RMK A01 T01680003  RH  033%=      5-min Rain = 0
KBWS 182135Z 29024G35KT 17/00 A2973 RMK A01 T01680004  RH  033%=      5-min Rain = 0
KBWS 182140Z 29027G36KT 17/00 A2973 RMK A01 T01680002  RH  033%=      5-min Rain = 0
KBWS 182145Z 29027G34KT 17/00 A2973 RMK A01 T01660004  RH  034%=      5-min Rain = 0
KBWS 182150Z 28026G33KT 16/00 A2972 RMK A01 T01630003  RH  034%=      5-min Rain = 0
KBWS 182155Z 28024G31KT 16/00 A2972 RMK A01 T01640003  RH  034%=      5-min Rain = 0
KBWS 182200Z 28028G35KT 16/M00 A2973 RMK A01 T01641002  RH  033%=      5-min Rain = 0
KBWS 182205Z 28024G33KT 16/M01 A2973 RMK A01 T01631005  RH  032%=      5-min Rain = 0
KBWS 182210Z 28025G32KT 17/M01 A2973 RMK A01 T01661006  RH  031%=      5-min Rain = 0
KBWS 182215Z 28028G37KT 17/M02 A2973 RMK A01 T01651018  RH  029%=      5-min Rain = 0
KBWS 182220Z 29028G35KT 16/M02 A2973 RMK A01 T01601023  RH  029%=      5-min Rain = 0
KBWS 182225Z 28026G33KT 16/M02 A2973 RMK A01 T01591021  RH  029%=      5-min Rain = 0
KBWS 182230Z 28031G40KT 16/M03 A2974 RMK A01 T01561029  RH  028%=      5-min Rain = 0
KBWS 182235Z 29032G40KT 15/M03 A2974 RMK A01 T01511026  RH  030%=      5-min Rain = 0
KBWS 182240Z 29027G34KT 15/M02 A2974 RMK A01 T01471021  RH  032%=      5-min Rain = 0
KBWS 182245Z 28022G30KT 15/M01 A2973 RMK A01 T01471014  RH  033%=      5-min Rain = 0
KBWS 182250Z 28019G27KT 15/M02 A2973 RMK A01 T01471024  RH  031%=      5-min Rain = 0
KBWS 182255Z 28018G25KT 15/M03 A2973 RMK A01 T01491031  RH  029%=      5-min Rain = 0
KBWS 182300Z 28018G24KT 15/M04 A2972 RMK A01 T01491041  RH  027%=      5-min Rain = 0
KBWS 182305Z 28019KT 15/M05 A2972 RMK A01 T01471053  RH  025%=      5-min Rain = 0
KBWS 182310Z 28018G24KT 15/M05 A2973 RMK A01 T01451052  RH  025%=      5-min Rain = 0
KBWS 182315Z 28018G25KT 14/M05 A2973 RMK A01 T01421049  RH  027%=      5-min Rain = 0
KBWS 182320Z 27017G23KT 14/M05 A2973 RMK A01 T01401048  RH  027%=      5-min Rain = 0
KBWS 182325Z 27017G24KT 14/M05 A2973 RMK A01 T01391048  RH  027%=      5-min Rain = 0
KBWS 182330Z 27019G25KT 14/M05 A2973 RMK A01 T01401049  RH  027%=      5-min Rain = 0
KBWS 182335Z 27018G24KT 14/M05 A2973 RMK A01 T01401048  RH  027%=      5-min Rain = 0
KBWS 182340Z 26018G26KT 14/M05 A2972 RMK A01 T01371048  RH  028%=      5-min Rain = 0
KBWS 182345Z 26018G23KT 13/M05 A2972 RMK A01 T01341049  RH  028%=      5-min Rain = 0
KBWS 182350Z 26018G25KT 13/M05 A2972 RMK A01 T01311050  RH  028%=      5-min Rain = 0
KBWS 182355Z 26020G27KT 13/M05 A2974 RMK A01 T01311053  RH  028%=      5-min Rain = 0
KBWS 190000Z 26020G28KT 13/M06 A2974 RMK A01 T01311055  RH  027%=      5-min Rain = 0
KBWS 190005Z 27017G25KT 13/M06 A2974 RMK A01 T01321057  RH  027%=      5-min Rain = 0
KBWS 190010Z 28017G25KT 13/M06 A2974 RMK A01 T01311059  RH  026%=      5-min Rain = 0
KBWS 190015Z 28019G25KT 13/M06 A2974 RMK A01 T01291060  RH  027%=      5-min Rain = 0
KBWS 190020Z 27018G24KT 13/M06 A2975 RMK A01 T01271058  RH  027%=      5-min Rain = 0
KBWS 190025Z 28018G23KT 13/M06 A2975 RMK A01 T01251056  RH  028%=      5-min Rain = 0
KBWS 190030Z 27018G25KT 13/M05 A2975 RMK A01 T01251054  RH  028%=      5-min Rain = 0
KBWS 190035Z 27017G24KT 12/M05 A2975 RMK A01 T01241052  RH  029%=      5-min Rain = 0
KBWS 190040Z 27017G23KT 12/M05 A2976 RMK A01 T01221051  RH  030%=      5-min Rain = 0
KBWS 190045Z 27016G21KT 12/M05 A2976 RMK A01 T01201050  RH  031%=      5-min Rain = 0
KBWS 190050Z 27016G21KT 12/M05 A2977 RMK A01 T01181050  RH  031%=      5-min Rain = 0
KBWS 190055Z 27017G22KT 12/M05 A2977 RMK A01 T01161053  RH  031%=      5-min Rain = 0
KBWS 190100Z 28019G24KT 12/M06 A2978 RMK A01 T01161059  RH  029%=      5-min Rain = 0
KBWS 190105Z 28021G29KT 12/M07 A2978 RMK A01 T01181071  RH  026%=      5-min Rain = 0
KBWS 190110Z 29024G34KT 12/M08 A2979 RMK A01 T01221084  RH  023%=      5-min Rain = 0
KBWS 190115Z 30029G41KT 13/M09 A2979 RMK A01 T01271088  RH  022%=      5-min Rain = 0
KBWS 190120Z 32032G42KT 12/M04 A2981 RMK A01 T01241040  RH  033%=      5-min Rain = 0
KBWS 190125Z 32035G43KT 11/M00 A2982 RMK A01 T01111001  RH  046%=      5-min Rain = 0
KBWS 190130Z 33030G40KT 11/00 A2983 RMK A01 T01050003  RH  050%=      5-min Rain = 0
KBWS 190135Z 32027G35KT 10/00 A2983 RMK A01 T01030004  RH  051%=      5-min Rain = 0
KBWS 190140Z 32027G35KT 10/01 A2983 RMK A01 T01000006  RH  052%=      5-min Rain = 0
KBWS 190145Z 33027G36KT 10/01 A2984 RMK A01 T00970008  RH  055%=      5-min Rain = 0
KBWS 190150Z 33026G35KT 09/01 A2984 RMK A01 T00930011  RH  057%=      5-min Rain = 0
KBWS 190155Z 33026G37KT 09/01 A2984 RMK A01 T00910012  RH  058%=      5-min Rain = 0
KBWS 190200Z 33023G30KT 09/01 A2984 RMK A01 T00890012  RH  059%=      5-min Rain = 0
KBWS 190205Z 33022G29KT 09/01 A2985 RMK A01 T00870012  RH  060%=      5-min Rain = 0
KBWS 190210Z 33024G31KT 09/01 A2985 RMK A01 T00850012  RH  061%=      5-min Rain = 0
KBWS 190215Z 32023G32KT 08/01 A2986 RMK A01 T00830013  RH  062%=      5-min Rain = 0
KBWS 190220Z 32026G33KT 08/02 A2986 RMK A01 T00800015  RH  064%=      5-min Rain = 0
KBWS 190225Z 33025G36KT 08/02 A2987 RMK A01 T00760016  RH  066%=      5-min Rain = 0
KBWS 190230Z 33027G35KT 07/02 A2988 RMK A01 T00740017  RH  068%=      5-min Rain = 0
KBWS 190235Z 33023G31KT 07/02 A2989 RMK A01 T00710017  RH  069%=      5-min Rain = 0
KBWS 190240Z 33027G38KT 07/02 A2989 RMK A01 T00680016  RH  070%=      5-min Rain = 0
KBWS 190245Z 33032G42KT 07/02 A2989 RMK A01 T00660015  RH  070%=      5-min Rain = 0
KBWS 190250Z 33034G43KT 07/01 A2989 RMK A01 T00650014  RH  071%=      5-min Rain = 0
KBWS 190255Z 33028G37KT 07/01 A299 RMK A01 T00650014  RH  071%=      5-min Rain = 0
KBWS 190300Z 33030G38KT 07/02 A299 RMK A01 T00660015  RH  071%=      5-min Rain = 0
KBWS 190305Z 33029G37KT 07/02 A2991 RMK A01 T00670017  RH  071%=      5-min Rain = 0
KBWS 190310Z 32028G37KT 07/02 A2992 RMK A01 T00660018  RH  072%=      5-min Rain = 0
KBWS 190315Z 32023G32KT 06/02 A2992 RMK A01 T00640019  RH  074%=      5-min Rain = 0
KBWS 190320Z 33023G29KT 06/02 A2992 RMK A01 T00620020  RH  076%=      5-min Rain = 0
KBWS 190325Z 33025G32KT 06/02 A2992 RMK A01 T00620020  RH  075%=      5-min Rain = 0
KBWS 190330Z 33025G32KT 06/02 A2993 RMK A01 T00610020  RH  076%=      5-min Rain = 0
KBWS 190335Z 33025G34KT 06/02 A2993 RMK A01 T00590020  RH  077%=      5-min Rain = 0
KBWS 190340Z 32025G33KT 06/02 A2994 RMK A01 T00570020  RH  078%=      5-min Rain = 0
KBWS 190345Z 32023G31KT 06/02 A2994 RMK A01 T00570020  RH  079%=      5-min Rain = 0
KBWS 190350Z 33027G33KT 06/02 A2995 RMK A01 T00570016  RH  076%=      5-min Rain = 0
KBWS 190355Z 33028G37KT 06/01 A2996 RMK A01 T00580012  RH  073%=      5-min Rain = 0
KBWS 190400Z 33026G32KT 06/01 A2996 RMK A01 T00580011  RH  072%=      5-min Rain = 0
KBWS 190405Z 33027G38KT 06/01 A2997 RMK A01 T00580008  RH  071%=      5-min Rain = 0
KBWS 190410Z 33030G38KT 06/00 A2998 RMK A01 T00570004  RH  070%=      5-min Rain = 0
KBWS 190415Z 34027G35KT 06/00 A2998 RMK A01 T00550001  RH  069%=      5-min Rain = 0
KBWS 190420Z 33024G33KT 05/00 A2999 RMK A01 T00530002  RH  070%=      5-min Rain = 0
KBWS 190425Z 34026G38KT 05/M00 A2999 RMK A01 T00541001  RH  068%=      5-min Rain = 0
KBWS 190430Z 34028G39KT 05/M00 A30 RMK A01 T00521003  RH  068%=      5-min Rain = 0
KBWS 190435Z 33028G35KT 05/M00 A3001 RMK A01 T00491004  RH  070%=      5-min Rain = 0
KBWS 190440Z 33030G38KT 04/M00 A3001 RMK A01 T00411001  RH  075%=      5-min Rain = 0
KBWS 190445Z 33030G41KT 04/M00 A3002 RMK A01 T00351002  RH  078%=      5-min Rain = 0
KBWS 190450Z 34029G37KT 03/00 A3003 RMK A01 T003000-0  RH  082%=      5-min Rain = 0
KBWS 190455Z 34024G33KT 03/00 A3003 RMK A01 T00270001  RH  084%=      5-min Rain = 0
KBWS 190500Z 34024G33KT 03/00 A3004 RMK A01 T00250001  RH  085%=      5-min Rain = 0
KBWS 190505Z 34021G27KT 02/M00 A3004 RMK A01 T00241001  RH  085%=      5-min Rain = 0
KBWS 190510Z 34021G28KT 02/M00 A3005 RMK A01 T00241003  RH  083%=      5-min Rain = 0
KBWS 190515Z 34018G26KT 03/M00 A3005 RMK A01 T00261003  RH  082%=      5-min Rain = 0
KBWS 190520Z 35017G26KT 03/M00 A3006 RMK A01 T00261003  RH  082%=      5-min Rain = 0
KBWS 190525Z 35020G34KT 03/M01 A3006 RMK A01 T00251006  RH  081%=      5-min Rain = 0
KBWS 190530Z 35022G29KT 02/M01 A3006 RMK A01 T00241007  RH  081%=      5-min Rain = 0
KBWS 190535Z 34021G27KT 02/M01 A3006 RMK A01 T00221006  RH  083%=      5-min Rain = 0
KBWS 190540Z 34021G29KT 02/M01 A3006 RMK A01 T00211006  RH  083%=      5-min Rain = 0
KBWS 190545Z 34021G29KT 02/M01 A3006 RMK A01 T00201006  RH  084%=      5-min Rain = 0
KBWS 190550Z 33022G28KT 02/M01 A3007 RMK A01 T00201006  RH  084%=      5-min Rain = 0
KBWS 190555Z 33021G26KT 02/M01 A3007 RMK A01 T00201006  RH  084%=      5-min Rain = 0

Page generated in 0.0088 seconds.